sensor_id;sensor_type;location;lat;lon;timestamp;temperature;humidity
70366;DHT22;57787;48.216;12.396;2023-04-24T00:02:19;12.00;87.20
70366;DHT22;57787;48.216;12.396;2023-04-24T00:04:46;12.10;87.30
70366;DHT22;57787;48.216;12.396;2023-04-24T00:07:15;12.00;87.30
70366;DHT22;57787;48.216;12.396;2023-04-24T00:09:46;12.00;87.40
70366;DHT22;57787;48.216;12.396;2023-04-24T00:12:13;12.00;87.30
70366;DHT22;57787;48.216;12.396;2023-04-24T00:14:40;12.00;87.40
70366;DHT22;57787;48.216;12.396;2023-04-24T00:17:07;12.00;87.30
70366;DHT22;57787;48.216;12.396;2023-04-24T00:19:34;12.00;87.20
70366;DHT22;57787;48.216;12.396;2023-04-24T00:22:03;11.90;87.30
70366;DHT22;57787;48.216;12.396;2023-04-24T00:24:30;11.90;87.30
70366;DHT22;57787;48.216;12.396;2023-04-24T00:26:57;11.90;87.30
70366;DHT22;57787;48.216;12.396;2023-04-24T00:29:24;11.90;87.40
70366;DHT22;57787;48.216;12.396;2023-04-24T00:31:54;11.90;87.40
70366;DHT22;57787;48.216;12.396;2023-04-24T00:34:21;11.90;87.30
70366;DHT22;57787;48.216;12.396;2023-04-24T00:36:48;11.90;87.30
70366;DHT22;57787;48.216;12.396;2023-04-24T00:39:18;11.90;87.30
70366;DHT22;57787;48.216;12.396;2023-04-24T00:41:46;11.80;87.30
70366;DHT22;57787;48.216;12.396;2023-04-24T00:44:14;11.90;87.30
70366;DHT22;57787;48.216;12.396;2023-04-24T00:46:41;11.80;87.50
70366;DHT22;57787;48.216;12.396;2023-04-24T00:49:10;11.80;87.60
70366;DHT22;57787;48.216;12.396;2023-04-24T00:51:38;11.80;87.30
70366;DHT22;57787;48.216;12.396;2023-04-24T00:54:05;11.80;87.30
70366;DHT22;57787;48.216;12.396;2023-04-24T00:56:33;11.80;87.20
70366;DHT22;57787;48.216;12.396;2023-04-24T00:59:00;11.80;87.50
70366;DHT22;57787;48.216;12.396;2023-04-24T01:01:28;11.70;87.30
70366;DHT22;57787;48.216;12.396;2023-04-24T01:03:55;11.80;87.10
70366;DHT22;57787;48.216;12.396;2023-04-24T01:06:24;11.70;87.40
70366;DHT22;57787;48.216;12.396;2023-04-24T01:08:52;11.70;87.20
70366;DHT22;57787;48.216;12.396;2023-04-24T01:11:21;11.70;87.30
70366;DHT22;57787;48.216;12.396;2023-04-24T01:13:47;11.70;87.30
70366;DHT22;57787;48.216;12.396;2023-04-24T01:16:17;11.60;87.40
70366;DHT22;57787;48.216;12.396;2023-04-24T01:18:50;11.60;87.70
70366;DHT22;57787;48.216;12.396;2023-04-24T01:21:18;11.60;87.50
70366;DHT22;57787;48.216;12.396;2023-04-24T01:23:47;11.60;87.40
70366;DHT22;57787;48.216;12.396;2023-04-24T01:26:16;11.60;87.20
70366;DHT22;57787;48.216;12.396;2023-04-24T01:28:44;11.60;86.90
70366;DHT22;57787;48.216;12.396;2023-04-24T01:31:14;11.50;87.20
70366;DHT22;57787;48.216;12.396;2023-04-24T01:33:42;11.60;87.10
70366;DHT22;57787;48.216;12.396;2023-04-24T01:36:12;11.50;87.00
70366;DHT22;57787;48.216;12.396;2023-04-24T01:38:39;11.50;87.00
70366;DHT22;57787;48.216;12.396;2023-04-24T01:41:06;11.50;87.50
70366;DHT22;57787;48.216;12.396;2023-04-24T01:43:35;11.50;87.50
70366;DHT22;57787;48.216;12.396;2023-04-24T01:46:01;11.40;87.70
70366;DHT22;57787;48.216;12.396;2023-04-24T01:48:29;11.50;87.50
70366;DHT22;57787;48.216;12.396;2023-04-24T01:50:57;11.40;87.40
70366;DHT22;57787;48.216;12.396;2023-04-24T01:53:24;11.40;87.50
70366;DHT22;57787;48.216;12.396;2023-04-24T01:55:52;11.40;87.60
70366;DHT22;57787;48.216;12.396;2023-04-24T01:58:18;11.40;87.40
70366;DHT22;57787;48.216;12.396;2023-04-24T02:00:45;11.40;87.20
70366;DHT22;57787;48.216;12.396;2023-04-24T02:03:13;11.30;87.50
70366;DHT22;57787;48.216;12.396;2023-04-24T02:05:43;11.40;87.80
70366;DHT22;57787;48.216;12.396;2023-04-24T02:08:12;11.40;87.70
70366;DHT22;57787;48.216;12.396;2023-04-24T02:10:39;11.30;87.60
70366;DHT22;57787;48.216;12.396;2023-04-24T02:13:07;11.30;87.40
70366;DHT22;57787;48.216;12.396;2023-04-24T02:15:35;11.40;87.70
70366;DHT22;57787;48.216;12.396;2023-04-24T02:18:02;11.30;87.60
70366;DHT22;57787;48.216;12.396;2023-04-24T02:20:29;11.30;87.60
70366;DHT22;57787;48.216;12.396;2023-04-24T02:22:56;11.30;87.50
70366;DHT22;57787;48.216;12.396;2023-04-24T02:25:26;11.30;87.70
70366;DHT22;57787;48.216;12.396;2023-04-24T02:27:55;11.30;87.30
70366;DHT22;57787;48.216;12.396;2023-04-24T02:30:22;11.30;87.90
70366;DHT22;57787;48.216;12.396;2023-04-24T02:32:50;11.30;87.60
70366;DHT22;57787;48.216;12.396;2023-04-24T02:35:16;11.30;88.00
70366;DHT22;57787;48.216;12.396;2023-04-24T02:37:44;11.30;87.60
70366;DHT22;57787;48.216;12.396;2023-04-24T02:40:10;11.30;87.60
70366;DHT22;57787;48.216;12.396;2023-04-24T02:42:39;11.30;87.90
70366;DHT22;57787;48.216;12.396;2023-04-24T02:45:07;11.20;87.60
70366;DHT22;57787;48.216;12.396;2023-04-24T02:47:34;11.20;87.80
70366;DHT22;57787;48.216;12.396;2023-04-24T02:50:03;11.20;87.70
70366;DHT22;57787;48.216;12.396;2023-04-24T02:52:30;11.10;87.20
70366;DHT22;57787;48.216;12.396;2023-04-24T02:55:00;11.20;87.40
70366;DHT22;57787;48.216;12.396;2023-04-24T02:57:27;11.10;87.40
70366;DHT22;57787;48.216;12.396;2023-04-24T02:59:54;11.10;87.50
70366;DHT22;57787;48.216;12.396;2023-04-24T03:02:21;11.10;87.50
70366;DHT22;57787;48.216;12.396;2023-04-24T03:04:48;11.00;87.20
70366;DHT22;57787;48.216;12.396;2023-04-24T03:07:17;11.00;87.20
70366;DHT22;57787;48.216;12.396;2023-04-24T03:09:47;11.00;87.20
70366;DHT22;57787;48.216;12.396;2023-04-24T03:12:14;10.90;86.80
70366;DHT22;57787;48.216;12.396;2023-04-24T03:14:42;10.90;86.90
70366;DHT22;57787;48.216;12.396;2023-04-24T03:17:09;10.90;86.80
70366;DHT22;57787;48.216;12.396;2023-04-24T03:19:36;10.90;86.50
70366;DHT22;57787;48.216;12.396;2023-04-24T03:22:03;10.80;86.60
70366;DHT22;57787;48.216;12.396;2023-04-24T03:24:31;10.80;86.40
70366;DHT22;57787;48.216;12.396;2023-04-24T03:26:58;10.70;86.60
70366;DHT22;57787;48.216;12.396;2023-04-24T03:29:25;10.70;86.40
70366;DHT22;57787;48.216;12.396;2023-04-24T03:31:53;10.70;86.60
70366;DHT22;57787;48.216;12.396;2023-04-24T03:34:21;10.60;86.30
70366;DHT22;57787;48.216;12.396;2023-04-24T03:36:47;10.60;86.40
70366;DHT22;57787;48.216;12.396;2023-04-24T03:39:18;10.60;86.40
70366;DHT22;57787;48.216;12.396;2023-04-24T03:41:45;10.60;86.60
70366;DHT22;57787;48.216;12.396;2023-04-24T03:44:11;10.60;86.30
70366;DHT22;57787;48.216;12.396;2023-04-24T03:46:38;10.60;86.70
70366;DHT22;57787;48.216;12.396;2023-04-24T03:49:05;10.50;86.70
70366;DHT22;57787;48.216;12.396;2023-04-24T03:51:35;10.50;87.00
70366;DHT22;57787;48.216;12.396;2023-04-24T03:54:01;10.50;86.60
70366;DHT22;57787;48.216;12.396;2023-04-24T03:56:28;10.50;87.00
70366;DHT22;57787;48.216;12.396;2023-04-24T03:58:55;10.40;86.80
70366;DHT22;57787;48.216;12.396;2023-04-24T04:01:22;10.40;86.70
70366;DHT22;57787;48.216;12.396;2023-04-24T04:03:50;10.40;86.90
70366;DHT22;57787;48.216;12.396;2023-04-24T04:06:17;10.40;86.70
70366;DHT22;57787;48.216;12.396;2023-04-24T04:08:45;10.40;87.10
70366;DHT22;57787;48.216;12.396;2023-04-24T04:11:13;10.40;87.00
70366;DHT22;57787;48.216;12.396;2023-04-24T04:13:40;10.30;86.70
70366;DHT22;57787;48.216;12.396;2023-04-24T04:16:08;10.30;87.20
70366;DHT22;57787;48.216;12.396;2023-04-24T04:18:39;10.30;86.90
70366;DHT22;57787;48.216;12.396;2023-04-24T04:21:07;10.30;87.00
70366;DHT22;57787;48.216;12.396;2023-04-24T04:23:35;10.30;87.10
70366;DHT22;57787;48.216;12.396;2023-04-24T04:26:04;10.30;87.10
70366;DHT22;57787;48.216;12.396;2023-04-24T04:28:33;10.30;87.10
70366;DHT22;57787;48.216;12.396;2023-04-24T04:31:00;10.30;87.40
70366;DHT22;57787;48.216;12.396;2023-04-24T04:33:27;10.30;87.30
70366;DHT22;57787;48.216;12.396;2023-04-24T04:35:54;10.30;87.50
70366;DHT22;57787;48.216;12.396;2023-04-24T04:38:25;10.30;87.40
70366;DHT22;57787;48.216;12.396;2023-04-24T04:40:56;10.30;87.50
70366;DHT22;57787;48.216;12.396;2023-04-24T04:43:23;10.30;87.30
70366;DHT22;57787;48.216;12.396;2023-04-24T04:45:52;10.30;87.50
70366;DHT22;57787;48.216;12.396;2023-04-24T04:48:21;10.30;87.50
70366;DHT22;57787;48.216;12.396;2023-04-24T04:50:49;10.30;87.50
70366;DHT22;57787;48.216;12.396;2023-04-24T04:53:16;10.30;87.60
70366;DHT22;57787;48.216;12.396;2023-04-24T04:55:43;10.30;87.60
70366;DHT22;57787;48.216;12.396;2023-04-24T04:58:09;10.30;87.50
70366;DHT22;57787;48.216;12.396;2023-04-24T05:00:37;10.30;87.50
70366;DHT22;57787;48.216;12.396;2023-04-24T05:03:04;10.30;87.60
70366;DHT22;57787;48.216;12.396;2023-04-24T05:05:46;10.30;87.80
70366;DHT22;57787;48.216;12.396;2023-04-24T05:08:13;10.30;87.80
70366;DHT22;57787;48.216;12.396;2023-04-24T05:10:52;10.30;87.70
70366;DHT22;57787;48.216;12.396;2023-04-24T05:13:19;10.30;87.70
70366;DHT22;57787;48.216;12.396;2023-04-24T05:16:01;10.30;87.80
70366;DHT22;57787;48.216;12.396;2023-04-24T05:18:29;10.30;87.90
70366;DHT22;57787;48.216;12.396;2023-04-24T05:20:57;10.30;87.80
70366;DHT22;57787;48.216;12.396;2023-04-24T05:23:24;10.30;87.80
70366;DHT22;57787;48.216;12.396;2023-04-24T05:25:52;10.30;87.70
70366;DHT22;57787;48.216;12.396;2023-04-24T05:28:22;10.30;87.70
70366;DHT22;57787;48.216;12.396;2023-04-24T05:30:49;10.30;87.80
70366;DHT22;57787;48.216;12.396;2023-04-24T05:33:16;10.30;87.80
70366;DHT22;57787;48.216;12.396;2023-04-24T05:35:43;10.30;87.80
70366;DHT22;57787;48.216;12.396;2023-04-24T05:38:13;10.40;87.80
70366;DHT22;57787;48.216;12.396;2023-04-24T05:40:41;10.40;87.70
70366;DHT22;57787;48.216;12.396;2023-04-24T05:43:10;10.40;87.90
70366;DHT22;57787;48.216;12.396;2023-04-24T05:45:38;10.40;87.90
70366;DHT22;57787;48.216;12.396;2023-04-24T05:48:07;10.40;87.80
70366;DHT22;57787;48.216;12.396;2023-04-24T05:50:34;10.50;87.80
70366;DHT22;57787;48.216;12.396;2023-04-24T05:53:03;10.40;87.50
70366;DHT22;57787;48.216;12.396;2023-04-24T05:55:30;10.50;87.70
70366;DHT22;57787;48.216;12.396;2023-04-24T05:57:58;10.40;87.70
70366;DHT22;57787;48.216;12.396;2023-04-24T06:00:25;10.50;87.50
70366;DHT22;57787;48.216;12.396;2023-04-24T06:02:53;10.50;87.70
70366;DHT22;57787;48.216;12.396;2023-04-24T06:05:21;10.50;87.80
70366;DHT22;57787;48.216;12.396;2023-04-24T06:07:48;10.50;87.80
70366;DHT22;57787;48.216;12.396;2023-04-24T06:10:15;10.60;87.80
70366;DHT22;57787;48.216;12.396;2023-04-24T06:12:42;10.60;87.90
70366;DHT22;57787;48.216;12.396;2023-04-24T06:15:09;10.60;87.80
70366;DHT22;57787;48.216;12.396;2023-04-24T06:17:37;10.60;87.70
70366;DHT22;57787;48.216;12.396;2023-04-24T06:20:05;10.70;87.70
70366;DHT22;57787;48.216;12.396;2023-04-24T06:22:33;10.70;87.70
70366;DHT22;57787;48.216;12.396;2023-04-24T06:25:00;10.70;87.70
70366;DHT22;57787;48.216;12.396;2023-04-24T06:27:28;10.80;87.70
70366;DHT22;57787;48.216;12.396;2023-04-24T06:29:57;10.80;87.60
70366;DHT22;57787;48.216;12.396;2023-04-24T06:32:24;10.80;87.50
70366;DHT22;57787;48.216;12.396;2023-04-24T06:34:52;10.90;87.50
70366;DHT22;57787;48.216;12.396;2023-04-24T06:37:19;10.90;86.90
70366;DHT22;57787;48.216;12.396;2023-04-24T06:39:47;10.90;86.80
70366;DHT22;57787;48.216;12.396;2023-04-24T06:42:15;10.90;86.90
70366;DHT22;57787;48.216;12.396;2023-04-24T06:44:43;11.00;86.60
70366;DHT22;57787;48.216;12.396;2023-04-24T06:47:11;11.00;86.70
70366;DHT22;57787;48.216;12.396;2023-04-24T06:49:41;11.10;86.70
70366;DHT22;57787;48.216;12.396;2023-04-24T06:52:08;11.10;86.60
70366;DHT22;57787;48.216;12.396;2023-04-24T06:54:36;11.10;86.60
70366;DHT22;57787;48.216;12.396;2023-04-24T06:57:03;11.20;86.70
70366;DHT22;57787;48.216;12.396;2023-04-24T06:59:30;11.30;86.50
70366;DHT22;57787;48.216;12.396;2023-04-24T07:01:57;11.40;86.60
70366;DHT22;57787;48.216;12.396;2023-04-24T07:04:26;11.50;86.70
70366;DHT22;57787;48.216;12.396;2023-04-24T07:06:54;11.60;85.70
70366;DHT22;57787;48.216;12.396;2023-04-24T07:09:25;11.70;85.80
70366;DHT22;57787;48.216;12.396;2023-04-24T07:11:55;12.00;85.70
70366;DHT22;57787;48.216;12.396;2023-04-24T07:14:23;12.20;85.30
70366;DHT22;57787;48.216;12.396;2023-04-24T07:16:50;12.40;85.30
70366;DHT22;57787;48.216;12.396;2023-04-24T07:19:16;12.70;84.50
70366;DHT22;57787;48.216;12.396;2023-04-24T07:21:45;12.80;83.30
70366;DHT22;57787;48.216;12.396;2023-04-24T07:24:12;13.10;82.70
70366;DHT22;57787;48.216;12.396;2023-04-24T07:26:39;13.20;82.00
70366;DHT22;57787;48.216;12.396;2023-04-24T07:29:08;13.20;80.40
70366;DHT22;57787;48.216;12.396;2023-04-24T07:31:35;13.20;80.70
70366;DHT22;57787;48.216;12.396;2023-04-24T07:34:02;13.30;80.80
70366;DHT22;57787;48.216;12.396;2023-04-24T07:36:29;13.30;80.30
70366;DHT22;57787;48.216;12.396;2023-04-24T07:38:59;13.30;80.30
70366;DHT22;57787;48.216;12.396;2023-04-24T07:41:25;13.50;80.60
70366;DHT22;57787;48.216;12.396;2023-04-24T07:43:54;13.60;79.90
70366;DHT22;57787;48.216;12.396;2023-04-24T07:46:21;13.70;80.40
70366;DHT22;57787;48.216;12.396;2023-04-24T07:48:50;13.80;79.60
70366;DHT22;57787;48.216;12.396;2023-04-24T07:51:37;13.90;78.70
70366;DHT22;57787;48.216;12.396;2023-04-24T07:54:05;14.00;78.80
70366;DHT22;57787;48.216;12.396;2023-04-24T07:56:34;14.10;78.90
70366;DHT22;57787;48.216;12.396;2023-04-24T07:59:06;14.10;78.80
70366;DHT22;57787;48.216;12.396;2023-04-24T08:01:32;14.20;78.40
70366;DHT22;57787;48.216;12.396;2023-04-24T08:04:03;14.20;78.80
70366;DHT22;57787;48.216;12.396;2023-04-24T08:06:31;14.10;77.20
70366;DHT22;57787;48.216;12.396;2023-04-24T08:08:59;14.10;77.60
70366;DHT22;57787;48.216;12.396;2023-04-24T08:11:26;14.20;77.30
70366;DHT22;57787;48.216;12.396;2023-04-24T08:13:53;14.30;78.10
70366;DHT22;57787;48.216;12.396;2023-04-24T08:16:22;14.30;77.40
70366;DHT22;57787;48.216;12.396;2023-04-24T08:18:53;14.40;78.00
70366;DHT22;57787;48.216;12.396;2023-04-24T08:21:20;14.40;76.50
70366;DHT22;57787;48.216;12.396;2023-04-24T08:23:47;14.50;76.60
70366;DHT22;57787;48.216;12.396;2023-04-24T08:26:14;14.50;75.80
70366;DHT22;57787;48.216;12.396;2023-04-24T08:28:41;14.50;74.90
70366;DHT22;57787;48.216;12.396;2023-04-24T08:31:10;14.60;75.30
70366;DHT22;57787;48.216;12.396;2023-04-24T08:33:39;14.70;75.00
70366;DHT22;57787;48.216;12.396;2023-04-24T08:36:07;14.90;75.70
70366;DHT22;57787;48.216;12.396;2023-04-24T08:38:38;15.20;75.40
70366;DHT22;57787;48.216;12.396;2023-04-24T08:41:09;15.40;75.30
70366;DHT22;57787;48.216;12.396;2023-04-24T08:43:36;15.60;74.60
70366;DHT22;57787;48.216;12.396;2023-04-24T08:46:03;15.70;74.30
70366;DHT22;57787;48.216;12.396;2023-04-24T08:48:38;15.70;74.00
70366;DHT22;57787;48.216;12.396;2023-04-24T08:51:06;15.70;74.00
70366;DHT22;57787;48.216;12.396;2023-04-24T08:53:35;15.60;73.00
70366;DHT22;57787;48.216;12.396;2023-04-24T08:56:04;15.60;73.90
70366;DHT22;57787;48.216;12.396;2023-04-24T08:58:32;15.60;73.40
70366;DHT22;57787;48.216;12.396;2023-04-24T09:00:59;15.60;73.40
70366;DHT22;57787;48.216;12.396;2023-04-24T09:03:27;15.80;74.20
70366;DHT22;57787;48.216;12.396;2023-04-24T09:06:13;15.90;73.50
70366;DHT22;57787;48.216;12.396;2023-04-24T09:08:41;16.10;71.50
70366;DHT22;57787;48.216;12.396;2023-04-24T09:11:08;16.20;72.20
70366;DHT22;57787;48.216;12.396;2023-04-24T09:13:36;16.10;71.00
70366;DHT22;57787;48.216;12.396;2023-04-24T09:16:04;16.20;70.60
70366;DHT22;57787;48.216;12.396;2023-04-24T09:18:30;16.30;69.40
70366;DHT22;57787;48.216;12.396;2023-04-24T09:20:58;16.30;69.00
70366;DHT22;57787;48.216;12.396;2023-04-24T09:23:27;16.30;69.00
70366;DHT22;57787;48.216;12.396;2023-04-24T09:26:00;16.30;69.20
70366;DHT22;57787;48.216;12.396;2023-04-24T09:28:29;16.60;69.70
70366;DHT22;57787;48.216;12.396;2023-04-24T09:33:29;17.00;68.60
70366;DHT22;57787;48.216;12.396;2023-04-24T09:35:57;17.20;67.50
70366;DHT22;57787;48.216;12.396;2023-04-24T09:38:32;17.20;66.30
70366;DHT22;57787;48.216;12.396;2023-04-24T09:41:00;17.10;66.30
70366;DHT22;57787;48.216;12.396;2023-04-24T09:43:29;17.00;64.60
70366;DHT22;57787;48.216;12.396;2023-04-24T09:45:57;16.70;66.30
70366;DHT22;57787;48.216;12.396;2023-04-24T09:48:32;16.40;68.60
70366;DHT22;57787;48.216;12.396;2023-04-24T09:51:00;15.90;68.90
70366;DHT22;57787;48.216;12.396;2023-04-24T09:53:30;15.20;68.50
70366;DHT22;57787;48.216;12.396;2023-04-24T09:58:40;14.30;71.70
70366;DHT22;57787;48.216;12.396;2023-04-24T10:01:09;13.90;73.20
70366;DHT22;57787;48.216;12.396;2023-04-24T10:03:38;13.80;72.90
70366;DHT22;57787;48.216;12.396;2023-04-24T10:06:11;13.60;74.40
70366;DHT22;57787;48.216;12.396;2023-04-24T10:08:38;13.70;74.90
70366;DHT22;57787;48.216;12.396;2023-04-24T10:11:05;13.70;75.10
70366;DHT22;57787;48.216;12.396;2023-04-24T10:13:33;14.00;77.00
70366;DHT22;57787;48.216;12.396;2023-04-24T10:16:00;14.30;78.20
70366;DHT22;57787;48.216;12.396;2023-04-24T10:18:29;14.50;75.30
70366;DHT22;57787;48.216;12.396;2023-04-24T10:20:57;14.80;74.10
70366;DHT22;57787;48.216;12.396;2023-04-24T10:23:27;14.80;72.20
70366;DHT22;57787;48.216;12.396;2023-04-24T10:25:54;15.00;73.50
70366;DHT22;57787;48.216;12.396;2023-04-24T10:28:21;15.10;69.90
70366;DHT22;57787;48.216;12.396;2023-04-24T10:30:48;15.30;71.30
70366;DHT22;57787;48.216;12.396;2023-04-24T10:33:19;15.60;72.60
70366;DHT22;57787;48.216;12.396;2023-04-24T10:35:48;15.90;69.50
70366;DHT22;57787;48.216;12.396;2023-04-24T10:38:17;16.40;72.30
70366;DHT22;57787;48.216;12.396;2023-04-24T10:40:45;16.60;67.90
70366;DHT22;57787;48.216;12.396;2023-04-24T10:43:13;16.70;69.70
70366;DHT22;57787;48.216;12.396;2023-04-24T10:45:43;16.90;67.80
70366;DHT22;57787;48.216;12.396;2023-04-24T10:48:26;17.10;68.10
70366;DHT22;57787;48.216;12.396;2023-04-24T10:50:53;17.10;66.10
70366;DHT22;57787;48.216;12.396;2023-04-24T10:53:23;17.10;66.50
70366;DHT22;57787;48.216;12.396;2023-04-24T10:56:00;17.20;67.20
70366;DHT22;57787;48.216;12.396;2023-04-24T10:58:35;17.30;66.90
70366;DHT22;57787;48.216;12.396;2023-04-24T11:01:02;17.50;65.30
70366;DHT22;57787;48.216;12.396;2023-04-24T11:03:30;17.70;66.10
70366;DHT22;57787;48.216;12.396;2023-04-24T11:06:07;17.70;63.90
70366;DHT22;57787;48.216;12.396;2023-04-24T11:08:39;17.70;60.30
70366;DHT22;57787;48.216;12.396;2023-04-24T11:11:13;17.50;60.80
70366;DHT22;57787;48.216;12.396;2023-04-24T11:21:46;17.50;59.70
70366;DHT22;57787;48.216;12.396;2023-04-24T11:27:16;17.90;59.20
70366;DHT22;57787;48.216;12.396;2023-04-24T11:29:42;18.00;59.50
70366;DHT22;57787;48.216;12.396;2023-04-24T11:32:29;18.20;59.70
70366;DHT22;57787;48.216;12.396;2023-04-24T11:34:58;18.40;56.40
70366;DHT22;57787;48.216;12.396;2023-04-24T11:37:29;18.50;56.20
70366;DHT22;57787;48.216;12.396;2023-04-24T11:39:59;18.70;58.30
70366;DHT22;57787;48.216;12.396;2023-04-24T11:42:28;18.70;56.60
70366;DHT22;57787;48.216;12.396;2023-04-24T11:44:57;18.80;57.60
70366;DHT22;57787;48.216;12.396;2023-04-24T11:47:28;18.80;56.20
70366;DHT22;57787;48.216;12.396;2023-04-24T11:49:58;18.60;54.40
70366;DHT22;57787;48.216;12.396;2023-04-24T11:52:25;18.60;56.70
70366;DHT22;57787;48.216;12.396;2023-04-24T11:54:54;18.70;57.60
70366;DHT22;57787;48.216;12.396;2023-04-24T11:57:23;18.60;55.40
70366;DHT22;57787;48.216;12.396;2023-04-24T11:59:54;18.30;55.50
70366;DHT22;57787;48.216;12.396;2023-04-24T12:02:22;18.00;59.80
70366;DHT22;57787;48.216;12.396;2023-04-24T12:04:50;17.60;59.30
70366;DHT22;57787;48.216;12.396;2023-04-24T12:07:17;17.10;59.80
70366;DHT22;57787;48.216;12.396;2023-04-24T12:09:47;16.60;64.30
70366;DHT22;57787;48.216;12.396;2023-04-24T12:12:18;16.30;64.20
70366;DHT22;57787;48.216;12.396;2023-04-24T12:14:47;16.20;66.50
70366;DHT22;57787;48.216;12.396;2023-04-24T12:17:14;16.20;64.30
70366;DHT22;57787;48.216;12.396;2023-04-24T12:19:47;16.10;65.10
70366;DHT22;57787;48.216;12.396;2023-04-24T12:22:15;16.00;62.90
70366;DHT22;57787;48.216;12.396;2023-04-24T12:25:01;16.10;65.30
70366;DHT22;57787;48.216;12.396;2023-04-24T12:27:34;16.30;64.50
70366;DHT22;57787;48.216;12.396;2023-04-24T12:30:03;16.60;60.80
70366;DHT22;57787;48.216;12.396;2023-04-24T12:32:33;16.70;62.10
70366;DHT22;57787;48.216;12.396;2023-04-24T12:35:04;16.90;61.10
70366;DHT22;57787;48.216;12.396;2023-04-24T12:37:34;17.10;62.00
70366;DHT22;57787;48.216;12.396;2023-04-24T12:40:17;17.20;56.70
70366;DHT22;57787;48.216;12.396;2023-04-24T12:42:45;17.10;60.00
70366;DHT22;57787;48.216;12.396;2023-04-24T12:45:12;17.00;58.30
70366;DHT22;57787;48.216;12.396;2023-04-24T12:47:40;16.80;58.40
70366;DHT22;57787;48.216;12.396;2023-04-24T12:50:07;17.00;59.00
70366;DHT22;57787;48.216;12.396;2023-04-24T12:52:34;17.00;60.60
70366;DHT22;57787;48.216;12.396;2023-04-24T12:55:03;17.10;60.20
70366;DHT22;57787;48.216;12.396;2023-04-24T12:57:31;17.10;59.00
70366;DHT22;57787;48.216;12.396;2023-04-24T12:59:58;17.30;57.30
70366;DHT22;57787;48.216;12.396;2023-04-24T13:02:26;17.50;57.80
70366;DHT22;57787;48.216;12.396;2023-04-24T13:04:53;17.60;55.70
70366;DHT22;57787;48.216;12.396;2023-04-24T13:07:20;17.70;56.40
70366;DHT22;57787;48.216;12.396;2023-04-24T13:09:48;17.80;57.30
70366;DHT22;57787;48.216;12.396;2023-04-24T13:12:16;17.90;56.40
70366;DHT22;57787;48.216;12.396;2023-04-24T13:14:44;18.00;56.50
70366;DHT22;57787;48.216;12.396;2023-04-24T13:17:18;18.20;55.30
70366;DHT22;57787;48.216;12.396;2023-04-24T13:19:49;18.30;55.20
70366;DHT22;57787;48.216;12.396;2023-04-24T13:22:16;18.50;54.60
70366;DHT22;57787;48.216;12.396;2023-04-24T13:24:45;18.40;51.50
70366;DHT22;57787;48.216;12.396;2023-04-24T13:27:18;18.60;53.80
70366;DHT22;57787;48.216;12.396;2023-04-24T13:29:45;18.60;52.60
70366;DHT22;57787;48.216;12.396;2023-04-24T13:32:13;18.80;52.90
70366;DHT22;57787;48.216;12.396;2023-04-24T13:34:40;18.80;52.30
70366;DHT22;57787;48.216;12.396;2023-04-24T13:37:07;18.90;52.50
70366;DHT22;57787;48.216;12.396;2023-04-24T13:39:34;19.00;52.40
70366;DHT22;57787;48.216;12.396;2023-04-24T13:42:02;18.60;50.30
70366;DHT22;57787;48.216;12.396;2023-04-24T13:44:30;18.60;54.70
70366;DHT22;57787;48.216;12.396;2023-04-24T13:46:58;18.50;52.20
70366;DHT22;57787;48.216;12.396;2023-04-24T13:49:25;18.30;55.90
70366;DHT22;57787;48.216;12.396;2023-04-24T13:51:52;18.30;55.30
70366;DHT22;57787;48.216;12.396;2023-04-24T13:54:21;18.00;57.30
70366;DHT22;57787;48.216;12.396;2023-04-24T13:56:49;17.70;54.40
70366;DHT22;57787;48.216;12.396;2023-04-24T13:59:17;17.50;56.70
70366;DHT22;57787;48.216;12.396;2023-04-24T14:01:43;17.50;59.20
70366;DHT22;57787;48.216;12.396;2023-04-24T14:04:11;17.30;60.00
70366;DHT22;57787;48.216;12.396;2023-04-24T14:06:39;17.30;58.60
70366;DHT22;57787;48.216;12.396;2023-04-24T14:09:06;17.30;59.90
70366;DHT22;57787;48.216;12.396;2023-04-24T14:11:33;17.30;59.10
70366;DHT22;57787;48.216;12.396;2023-04-24T14:14:00;17.30;56.70
70366;DHT22;57787;48.216;12.396;2023-04-24T14:16:28;17.30;56.50
70366;DHT22;57787;48.216;12.396;2023-04-24T14:18:57;17.30;54.00
70366;DHT22;57787;48.216;12.396;2023-04-24T14:21:25;17.10;53.50
70366;DHT22;57787;48.216;12.396;2023-04-24T14:23:53;17.00;53.50
70366;DHT22;57787;48.216;12.396;2023-04-24T14:26:22;16.90;52.80
70366;DHT22;57787;48.216;12.396;2023-04-24T14:28:51;16.80;55.50
70366;DHT22;57787;48.216;12.396;2023-04-24T14:31:36;16.80;54.70
70366;DHT22;57787;48.216;12.396;2023-04-24T14:34:05;16.80;55.40
70366;DHT22;57787;48.216;12.396;2023-04-24T14:36:32;16.80;57.50
70366;DHT22;57787;48.216;12.396;2023-04-24T14:38:59;16.80;54.20
70366;DHT22;57787;48.216;12.396;2023-04-24T14:41:32;16.60;52.50
70366;DHT22;57787;48.216;12.396;2023-04-24T14:44:02;16.60;55.10
70366;DHT22;57787;48.216;12.396;2023-04-24T14:46:29;16.50;52.80
70366;DHT22;57787;48.216;12.396;2023-04-24T14:49:00;16.50;57.10
70366;DHT22;57787;48.216;12.396;2023-04-24T14:51:26;16.60;55.50
70366;DHT22;57787;48.216;12.396;2023-04-24T14:53:55;16.70;54.50
70366;DHT22;57787;48.216;12.396;2023-04-24T14:56:22;16.80;54.60
70366;DHT22;57787;48.216;12.396;2023-04-24T14:58:49;16.80;53.10
70366;DHT22;57787;48.216;12.396;2023-04-24T15:01:16;16.80;55.80
70366;DHT22;57787;48.216;12.396;2023-04-24T15:03:46;16.70;52.80
70366;DHT22;57787;48.216;12.396;2023-04-24T15:06:13;16.50;54.90
70366;DHT22;57787;48.216;12.396;2023-04-24T15:08:42;16.50;55.60
70366;DHT22;57787;48.216;12.396;2023-04-24T15:11:10;16.30;52.90
70366;DHT22;57787;48.216;12.396;2023-04-24T15:13:37;16.10;56.40
70366;DHT22;57787;48.216;12.396;2023-04-24T15:16:08;16.00;53.50
70366;DHT22;57787;48.216;12.396;2023-04-24T15:18:35;15.80;48.50
70366;DHT22;57787;48.216;12.396;2023-04-24T15:21:03;15.70;51.90
70366;DHT22;57787;48.216;12.396;2023-04-24T15:23:30;15.80;54.60
70366;DHT22;57787;48.216;12.396;2023-04-24T15:25:58;15.80;52.00
70366;DHT22;57787;48.216;12.396;2023-04-24T15:28:26;16.00;51.80
70366;DHT22;57787;48.216;12.396;2023-04-24T15:30:53;16.20;52.90
70366;DHT22;57787;48.216;12.396;2023-04-24T15:33:21;16.30;52.90
70366;DHT22;57787;48.216;12.396;2023-04-24T15:35:47;16.30;53.40
70366;DHT22;57787;48.216;12.396;2023-04-24T15:38:15;16.40;53.60
70366;DHT22;57787;48.216;12.396;2023-04-24T15:40:42;16.50;52.80